Time;durP1;ratioP1;P1;durP2;ratioP2;P2;SDS_P1;SDS_P2;PMS_P1;PMS_P2;Temp;Humidity;BMP_temperature;BMP_pressure;BME280_temperature;BME280_humidity;BME280_pressure;Samples;Min_cycle;Max_cycle;Signal;HPM_P1;HPM_P2
2021/05/16 00:01:08;;;;;;;21.17;15.00;;;;;;;;;;5055195;28;20181;-71
2021/05/16 00:03:34;;;;;;;27.10;14.67;;;;;;;;;;5056210;28;20213;-70
2021/05/16 00:05:59;;;;;;;24.20;14.47;;;;;;;;;;5060823;28;20173;-70
2021/05/16 00:08:24;;;;;;;24.27;15.20;;;;;;;;;;5058141;28;20635;-71
2021/05/16 00:10:50;;;;;;;19.73;15.30;;;;;;;;;;5062612;28;20208;-71
2021/05/16 00:13:15;;;;;;;21.07;14.33;;;;;;;;;;5059569;28;20202;-69
2021/05/16 00:15:40;;;;;;;25.43;15.30;;;;;;;;;;5064976;28;20178;-71
2021/05/16 00:18:05;;;;;;;24.07;15.40;;;;;;;;;;5064593;28;20206;-70
2021/05/16 00:20:31;;;;;;;23.30;16.10;;;;;;;;;;5053147;28;20230;-71
2021/05/16 00:22:57;;;;;;;25.70;15.47;;;;;;;;;;5061521;28;20209;-71
2021/05/16 00:25:23;;;;;;;27.93;14.93;;;;;;;;;;5061673;28;20300;-71
2021/05/16 00:27:49;;;;;;;25.83;14.27;;;;;;;;;;5057344;28;20207;-71
2021/05/16 00:30:15;;;;;;;29.13;15.03;;;;;;;;;;5058593;28;20201;-70
2021/05/16 00:32:40;;;;;;;23.20;12.70;;;;;;;;;;5060337;28;20231;-71
2021/05/16 00:35:06;;;;;;;22.87;13.23;;;;;;;;;;5055403;28;20596;-69
2021/05/16 00:37:32;;;;;;;23.23;11.07;;;;;;;;;;5060345;28;20709;-69
2021/05/16 00:39:57;;;;;;;20.27;11.80;;;;;;;;;;5054763;28;20170;-69
2021/05/16 00:42:23;;;;;;;26.63;11.20;;;;;;;;;;5058504;28;20212;-70
2021/05/16 00:44:57;;;;;;;19.90;10.90;;;;;;;;;;5055489;28;20258;-72
2021/05/16 00:47:23;;;;;;;23.47;10.57;;;;;;;;;;5059872;28;20169;-69
2021/05/16 00:49:48;;;;;;;27.07;9.83;;;;;;;;;;5062083;28;20176;-69
2021/05/16 00:52:13;;;;;;;24.80;11.80;;;;;;;;;;5063954;28;20603;-72
2021/05/16 00:54:39;;;;;;;17.63;9.93;;;;;;;;;;5058627;28;20189;-69
2021/05/16 00:57:04;;;;;;;22.23;11.43;;;;;;;;;;5064687;28;20663;-69
2021/05/16 00:59:29;;;;;;;33.10;11.07;;;;;;;;;;5052025;28;20260;-70
2021/05/16 01:01:55;;;;;;;27.23;10.47;;;;;;;;;;5057914;28;20221;-70
2021/05/16 01:04:20;;;;;;;25.93;10.77;;;;;;;;;;5063351;28;20228;-69
2021/05/16 01:06:45;;;;;;;20.47;9.70;;;;;;;;;;5061470;28;20181;-69
2021/05/16 01:09:11;;;;;;;21.23;11.07;;;;;;;;;;5062494;28;20169;-70
2021/05/16 01:11:41;;;;;;;24.13;11.87;;;;;;;;;;5054542;28;20614;-70
2021/05/16 01:14:07;;;;;;;23.67;11.03;;;;;;;;;;5053021;28;20174;-70
2021/05/16 01:16:32;;;;;;;22.40;12.10;;;;;;;;;;5061714;28;20711;-71
2021/05/16 01:18:57;;;;;;;25.77;12.50;;;;;;;;;;5065559;28;20170;-71
2021/05/16 01:21:23;;;;;;;24.80;13.23;;;;;;;;;;5059080;28;20641;-71
2021/05/16 01:23:48;;;;;;;28.83;13.37;;;;;;;;;;5058200;28;20197;-71
2021/05/16 01:26:14;;;;;;;29.80;14.23;;;;;;;;;;5059495;28;20634;-71
2021/05/16 01:28:42;;;;;;;36.83;14.27;;;;;;;;;;5054673;28;20189;-70
2021/05/16 01:31:07;;;;;;;29.10;15.23;;;;;;;;;;5062304;28;20205;-70
2021/05/16 01:33:32;;;;;;;41.07;15.77;;;;;;;;;;5054736;28;20237;-71
2021/05/16 01:35:57;;;;;;;33.77;15.67;;;;;;;;;;5057508;28;20177;-71
2021/05/16 01:38:23;;;;;;;33.73;14.27;;;;;;;;;;5057956;28;20177;-70
2021/05/16 01:40:48;;;;;;;34.13;13.87;;;;;;;;;;5060065;28;20173;-71
2021/05/16 01:43:14;;;;;;;32.33;13.43;;;;;;;;;;5062303;28;20213;-71
2021/05/16 01:45:39;;;;;;;39.20;16.10;;;;;;;;;;5056720;28;20647;-70
2021/05/16 01:48:05;;;;;;;33.90;15.57;;;;;;;;;;5057353;28;20177;-70
2021/05/16 01:50:31;;;;;;;41.87;16.60;;;;;;;;;;5066368;28;20184;-73
2021/05/16 01:52:57;;;;;;;46.87;17.30;;;;;;;;;;5059346;28;20204;-70
2021/05/16 01:55:22;;;;;;;35.07;15.60;;;;;;;;;;5063782;28;20185;-70
2021/05/16 01:57:48;;;;;;;39.40;16.37;;;;;;;;;;5055401;28;20185;-69
2021/05/16 02:00:37;;;;;;;34.70;17.10;;;;;;;;;;5056333;28;20702;-73
2021/05/16 02:03:02;;;;;;;35.13;15.90;;;;;;;;;;5063080;28;20220;-69
2021/05/16 02:05:27;;;;;;;37.33;16.33;;;;;;;;;;5063342;28;20185;-71
2021/05/16 02:07:53;;;;;;;36.13;15.83;;;;;;;;;;5060346;28;20177;-70
2021/05/16 02:10:19;;;;;;;38.33;13.37;;;;;;;;;;5073196;28;20172;-71
2021/05/16 02:12:44;;;;;;;30.53;14.60;;;;;;;;;;5062602;28;20204;-70
2021/05/16 02:15:11;;;;;;;25.23;13.63;;;;;;;;;;5061255;28;20178;-71
2021/05/16 02:17:39;;;;;;;37.93;13.07;;;;;;;;;;5062519;28;20185;-71
2021/05/16 02:20:05;;;;;;;38.40;13.57;;;;;;;;;;5065675;28;20256;-71
2021/05/16 02:22:30;;;;;;;40.20;14.80;;;;;;;;;;5060894;28;20223;-71
2021/05/16 02:24:55;;;;;;;36.20;14.57;;;;;;;;;;5064181;28;20170;-71
2021/05/16 02:27:20;;;;;;;44.73;14.90;;;;;;;;;;5059290;28;20230;-71
2021/05/16 02:29:45;;;;;;;30.87;14.10;;;;;;;;;;5058492;28;20260;-71
2021/05/16 02:32:11;;;;;;;29.70;13.67;;;;;;;;;;5056192;28;20239;-71
2021/05/16 02:34:36;;;;;;;45.13;13.70;;;;;;;;;;5057867;28;20185;-69
2021/05/16 02:37:01;;;;;;;38.40;14.13;;;;;;;;;;5069242;28;20193;-70
2021/05/16 02:39:27;;;;;;;34.27;13.33;;;;;;;;;;5067975;28;20193;-71
2021/05/16 02:41:52;;;;;;;32.20;13.60;;;;;;;;;;5066050;28;20212;-71
2021/05/16 02:44:18;;;;;;;27.40;13.47;;;;;;;;;;5064770;28;20992;-70
2021/05/16 02:46:44;;;;;;;35.43;14.87;;;;;;;;;;5067858;28;20604;-68
2021/05/16 02:49:09;;;;;;;33.07;14.57;;;;;;;;;;5069819;28;20217;-71
2021/05/16 02:51:34;;;;;;;39.43;13.17;;;;;;;;;;5067398;28;20865;-70
2021/05/16 02:53:59;;;;;;;30.33;15.23;;;;;;;;;;5068166;28;20223;-73
2021/05/16 02:56:24;;;;;;;34.63;13.90;;;;;;;;;;5063587;28;20196;-69
2021/05/16 02:58:49;;;;;;;25.07;12.20;;;;;;;;;;5069101;28;20190;-69
2021/05/16 03:01:15;;;;;;;32.53;12.97;;;;;;;;;;5060880;28;20181;-71
2021/05/16 03:03:40;;;;;;;33.53;14.77;;;;;;;;;;5063430;28;20296;-71
2021/05/16 03:06:06;;;;;;;35.53;12.83;;;;;;;;;;5059031;28;20555;-70
2021/05/16 03:08:31;;;;;;;33.40;14.30;;;;;;;;;;5064811;28;20181;-69
2021/05/16 03:10:57;;;;;;;30.33;14.37;;;;;;;;;;5061623;28;20194;-69
2021/05/16 03:13:22;;;;;;;30.83;13.77;;;;;;;;;;5071206;28;20697;-69
2021/05/16 03:15:47;;;;;;;36.10;13.67;;;;;;;;;;5063453;28;20247;-70
2021/05/16 03:18:12;;;;;;;32.93;13.43;;;;;;;;;;5070461;28;20173;-70
2021/05/16 03:20:37;;;;;;;30.23;13.80;;;;;;;;;;5064450;28;20589;-70
2021/05/16 03:23:03;;;;;;;32.60;13.60;;;;;;;;;;5068119;28;20215;-70
2021/05/16 03:25:28;;;;;;;30.80;13.03;;;;;;;;;;5068094;28;20205;-70
2021/05/16 03:27:53;;;;;;;33.03;12.97;;;;;;;;;;5065440;28;20173;-71
2021/05/16 03:30:19;;;;;;;31.67;12.67;;;;;;;;;;5062110;28;20620;-70
2021/05/16 03:32:44;;;;;;;26.93;13.83;;;;;;;;;;5065164;28;20275;-70
2021/05/16 03:35:10;;;;;;;32.07;12.20;;;;;;;;;;5058990;28;20273;-70
2021/05/16 03:37:35;;;;;;;35.03;12.10;;;;;;;;;;5061445;28;20192;-70
2021/05/16 03:40:01;;;;;;;31.37;15.80;;;;;;;;;;5062178;28;20178;-70
2021/05/16 03:42:26;;;;;;;30.97;13.07;;;;;;;;;;5063394;28;20200;-69
2021/05/16 03:44:53;;;;;;;30.40;14.60;;;;;;;;;;5057480;28;20639;-70
2021/05/16 03:47:18;;;;;;;42.17;14.00;;;;;;;;;;5061944;28;20716;-71
2021/05/16 03:49:44;;;;;;;32.53;13.23;;;;;;;;;;5060531;28;20170;-70
2021/05/16 03:52:09;;;;;;;37.77;13.37;;;;;;;;;;5063120;28;20199;-70
2021/05/16 03:54:34;;;;;;;35.37;12.57;;;;;;;;;;5059037;28;20181;-70
2021/05/16 03:57:00;;;;;;;31.90;12.27;;;;;;;;;;5062922;28;20612;-68
2021/05/16 03:59:25;;;;;;;33.10;12.80;;;;;;;;;;5055650;28;20616;-70
2021/05/16 04:01:51;;;;;;;27.73;12.73;;;;;;;;;;5057183;28;20223;-69
2021/05/16 04:04:16;;;;;;;34.73;14.00;;;;;;;;;;5056242;28;20188;-69
2021/05/16 04:06:41;;;;;;;25.50;12.03;;;;;;;;;;5055567;28;20178;-69
2021/05/16 04:09:07;;;;;;;35.40;12.23;;;;;;;;;;5056571;28;20273;-70
2021/05/16 04:11:32;;;;;;;37.17;13.07;;;;;;;;;;5063385;28;20565;-70
2021/05/16 04:13:57;;;;;;;28.27;13.13;;;;;;;;;;5056111;28;20519;-70
2021/05/16 04:16:22;;;;;;;30.80;12.50;;;;;;;;;;5063349;28;20181;-70
2021/05/16 04:18:48;;;;;;;30.03;12.07;;;;;;;;;;5058267;28;20185;-69
2021/05/16 04:21:13;;;;;;;29.47;10.90;;;;;;;;;;5057315;28;20280;-70
2021/05/16 04:23:39;;;;;;;35.67;13.60;;;;;;;;;;5061946;28;20311;-70
2021/05/16 04:26:04;;;;;;;28.70;12.37;;;;;;;;;;5054107;28;20188;-69
2021/05/16 04:28:29;;;;;;;35.83;12.77;;;;;;;;;;5058133;28;20172;-71
2021/05/16 04:30:55;;;;;;;28.27;13.37;;;;;;;;;;5067275;28;20177;-70
2021/05/16 04:33:20;;;;;;;31.50;12.47;;;;;;;;;;5059887;28;20204;-69
2021/05/16 04:35:45;;;;;;;32.53;13.30;;;;;;;;;;5061595;28;20548;-71
2021/05/16 04:38:10;;;;;;;34.10;12.63;;;;;;;;;;5059784;28;20196;-70
2021/05/16 04:40:36;;;;;;;34.40;13.63;;;;;;;;;;5052794;28;20257;-70
2021/05/16 04:43:02;;;;;;;27.63;11.60;;;;;;;;;;5056533;28;20251;-71
2021/05/16 04:45:27;;;;;;;26.70;11.37;;;;;;;;;;5060342;28;20180;-70
2021/05/16 04:47:53;;;;;;;26.00;10.47;;;;;;;;;;5056040;28;20169;-71
2021/05/16 04:50:18;;;;;;;23.50;9.70;;;;;;;;;;5061396;28;20188;-70
2021/05/16 04:52:46;;;;;;;23.23;9.63;;;;;;;;;;5062371;28;20197;-70
2021/05/16 04:55:13;;;;;;;17.33;8.63;;;;;;;;;;5059528;28;20177;-70
2021/05/16 04:57:38;;;;;;;32.97;11.87;;;;;;;;;;5052679;28;20169;-71
2021/05/16 05:00:04;;;;;;;17.47;9.03;;;;;;;;;;5056243;28;20178;-71
2021/05/16 05:02:30;;;;;;;26.40;9.63;;;;;;;;;;5056244;28;20205;-70
2021/05/16 05:04:55;;;;;;;25.80;9.60;;;;;;;;;;5062987;28;20177;-71
2021/05/16 05:07:20;;;;;;;25.97;10.60;;;;;;;;;;5057613;28;20190;-70
2021/05/16 05:09:45;;;;;;;21.87;10.73;;;;;;;;;;5060315;28;20172;-71
2021/05/16 05:12:11;;;;;;;29.47;12.17;;;;;;;;;;5060699;28;20208;-70
2021/05/16 05:14:36;;;;;;;29.73;12.13;;;;;;;;;;5052581;28;20319;-70
2021/05/16 05:17:01;;;;;;;26.87;11.87;;;;;;;;;;5057401;28;20181;-74
2021/05/16 05:19:26;;;;;;;37.70;13.00;;;;;;;;;;5065749;28;20591;-70
2021/05/16 05:21:52;;;;;;;35.67;13.23;;;;;;;;;;5058193;28;20247;-69
2021/05/16 05:24:17;;;;;;;32.60;13.80;;;;;;;;;;5064828;28;20193;-71
2021/05/16 05:26:42;;;;;;;38.77;13.17;;;;;;;;;;5056548;28;20615;-69
2021/05/16 05:29:07;;;;;;;36.30;14.10;;;;;;;;;;5061428;28;20186;-71
2021/05/16 05:31:32;;;;;;;30.47;13.43;;;;;;;;;;5065024;28;20178;-70
2021/05/16 05:33:58;;;;;;;30.87;13.97;;;;;;;;;;5061151;28;20678;-71
2021/05/16 05:36:23;;;;;;;39.77;12.73;;;;;;;;;;5065781;28;20272;-71
2021/05/16 05:38:48;;;;;;;28.37;12.60;;;;;;;;;;5062227;28;20172;-71
2021/05/16 05:41:14;;;;;;;36.43;11.83;;;;;;;;;;5062818;28;20551;-70
2021/05/16 05:43:39;;;;;;;29.70;13.67;;;;;;;;;;5062744;28;20205;-70
2021/05/16 05:46:05;;;;;;;29.10;12.93;;;;;;;;;;5057491;28;20198;-71
2021/05/16 05:48:30;;;;;;;32.77;11.70;;;;;;;;;;5061394;28;20209;-71
2021/05/16 05:50:56;;;;;;;26.50;10.70;;;;;;;;;;5055410;28;20564;-71
2021/05/16 05:53:22;;;;;;;31.00;12.70;;;;;;;;;;5068647;28;20200;-70
2021/05/16 05:55:47;;;;;;;26.77;10.40;;;;;;;;;;5062835;28;20174;-70
2021/05/16 05:58:12;;;;;;;34.33;14.17;;;;;;;;;;5066077;28;20267;-70
2021/05/16 06:00:38;;;;;;;32.17;11.60;;;;;;;;;;5062186;28;20647;-70
2021/05/16 06:03:04;;;;;;;30.77;11.23;;;;;;;;;;5057342;28;20214;-70
2021/05/16 06:05:29;;;;;;;34.93;12.60;;;;;;;;;;5068041;28;20173;-70
2021/05/16 06:07:55;;;;;;;33.60;11.77;;;;;;;;;;5060391;28;20177;-71
2021/05/16 06:10:21;;;;;;;25.43;11.43;;;;;;;;;;5061605;28;20176;-72
2021/05/16 06:12:46;;;;;;;39.27;11.77;;;;;;;;;;5060660;28;20284;-70
2021/05/16 06:15:12;;;;;;;25.43;10.67;;;;;;;;;;5062269;28;20276;-70
2021/05/16 06:17:37;;;;;;;24.67;10.73;;;;;;;;;;5059784;28;20188;-70
2021/05/16 06:20:03;;;;;;;38.53;12.13;;;;;;;;;;5058018;28;20273;-70
2021/05/16 06:22:28;;;;;;;25.33;10.57;;;;;;;;;;5061273;28;20350;-70
2021/05/16 06:24:53;;;;;;;28.87;9.70;;;;;;;;;;5064110;28;20170;-70
2021/05/16 06:27:19;;;;;;;33.93;11.23;;;;;;;;;;5058348;28;20177;-70
2021/05/16 06:29:44;;;;;;;33.40;11.73;;;;;;;;;;5060269;28;20260;-70
2021/05/16 06:32:11;;;;;;;33.37;10.57;;;;;;;;;;5064219;28;20288;-70
2021/05/16 06:34:36;;;;;;;32.93;11.50;;;;;;;;;;5059245;28;20177;-70
2021/05/16 06:37:04;;;;;;;24.10;12.00;;;;;;;;;;5061966;28;20281;-69
2021/05/16 06:39:30;;;;;;;24.70;10.23;;;;;;;;;;5060810;28;20177;-70
2021/05/16 06:41:55;;;;;;;29.13;11.50;;;;;;;;;;5060066;28;20839;-69
2021/05/16 06:44:20;;;;;;;28.87;12.37;;;;;;;;;;5056800;28;20172;-71
2021/05/16 06:46:45;;;;;;;25.40;10.20;;;;;;;;;;5062835;28;20634;-70
2021/05/16 06:49:11;;;;;;;24.83;10.33;;;;;;;;;;5065956;28;20746;-70
2021/05/16 06:51:38;;;;;;;26.30;10.83;;;;;;;;;;5062899;28;20173;-70
2021/05/16 06:54:03;;;;;;;25.97;9.70;;;;;;;;;;5061397;28;20177;-71
2021/05/16 06:56:28;;;;;;;32.47;9.97;;;;;;;;;;5061383;28;20803;-71
2021/05/16 06:58:54;;;;;;;20.27;9.07;;;;;;;;;;5064420;28;20197;-70
2021/05/16 07:01:19;;;;;;;22.17;8.63;;;;;;;;;;5061634;28;20701;-71
2021/05/16 07:03:44;;;;;;;25.03;9.27;;;;;;;;;;5059557;28;20208;-71
2021/05/16 07:06:10;;;;;;;23.43;8.83;;;;;;;;;;5060160;28;20177;-70
2021/05/16 07:08:35;;;;;;;23.98;8.73;;;;;;;;;;5062114;28;20173;-70
2021/05/16 07:11:01;;;;;;;21.40;8.90;;;;;;;;;;5065720;28;20182;-71
2021/05/16 07:13:26;;;;;;;26.40;9.93;;;;;;;;;;5056510;28;20207;-71
2021/05/16 07:15:51;;;;;;;20.30;8.13;;;;;;;;;;5059780;28;20272;-71
2021/05/16 07:18:16;;;;;;;25.60;9.63;;;;;;;;;;5064087;28;20191;-71
2021/05/16 07:20:41;;;;;;;19.05;9.68;;;;;;;;;;5057315;28;20193;-71
2021/05/16 07:23:07;;;;;;;24.53;9.03;;;;;;;;;;5063016;28;20284;-71
2021/05/16 07:25:32;;;;;;;23.88;8.20;;;;;;;;;;5054198;28;20642;-71
2021/05/16 07:27:58;;;;;;;18.95;7.50;;;;;;;;;;5059340;28;20176;-71
2021/05/16 07:30:23;;;;;;;22.23;9.15;;;;;;;;;;5061726;28;20226;-71
2021/05/16 07:32:48;;;;;;;20.55;8.68;;;;;;;;;;5065006;28;20193;-70
2021/05/16 07:35:14;;;;;;;23.73;8.75;;;;;;;;;;5057052;28;20193;-71
2021/05/16 07:37:40;;;;;;;22.20;8.35;;;;;;;;;;5064007;28;20235;-70
2021/05/16 07:40:06;;;;;;;17.40;8.87;;;;;;;;;;5060717;28;20243;-71
2021/05/16 07:42:31;;;;;;;20.13;8.68;;;;;;;;;;5063412;28;20204;-69
2021/05/16 07:44:57;;;;;;;20.07;7.17;;;;;;;;;;5058626;28;20165;-71
2021/05/16 07:47:22;;;;;;;24.60;10.35;;;;;;;;;;5055941;28;20256;-70
2021/05/16 07:49:47;;;;;;;20.73;9.35;;;;;;;;;;5062991;28;20188;-71
2021/05/16 07:52:12;;;;;;;29.23;9.87;;;;;;;;;;5064742;28;20217;-70
2021/05/16 07:54:38;;;;;;;22.48;9.50;;;;;;;;;;5059252;28;20269;-71
2021/05/16 07:57:03;;;;;;;23.17;9.82;;;;;;;;;;5062960;28;20180;-69
2021/05/16 07:59:30;;;;;;;26.58;9.82;;;;;;;;;;5062412;28;20620;-70
2021/05/16 08:01:55;;;;;;;20.95;9.43;;;;;;;;;;5068173;28;20246;-70
2021/05/16 08:04:20;;;;;;;24.05;9.02;;;;;;;;;;5061928;28;20655;-70
2021/05/16 08:06:45;;;;;;;24.30;9.15;;;;;;;;;;5062086;28;20256;-71
2021/05/16 08:09:10;;;;;;;24.27;9.20;;;;;;;;;;5065760;28;20703;-71
2021/05/16 08:11:35;;;;;;;19.15;7.72;;;;;;;;;;5062013;28;20178;-70
2021/05/16 08:14:01;;;;;;;19.17;7.80;;;;;;;;;;5062376;28;20189;-69
2021/05/16 08:16:26;;;;;;;27.88;9.15;;;;;;;;;;5060663;28;20260;-70
2021/05/16 08:18:52;;;;;;;18.73;8.85;;;;;;;;;;5066932;28;20237;-71
2021/05/16 08:21:18;;;;;;;26.42;9.68;;;;;;;;;;5060952;28;20185;-71
2021/05/16 08:23:43;;;;;;;19.88;9.05;;;;;;;;;;5059464;28;20592;-71
2021/05/16 08:26:08;;;;;;;22.25;10.40;;;;;;;;;;5059586;28;20180;-72
2021/05/16 08:28:33;;;;;;;21.40;9.13;;;;;;;;;;5061854;28;20661;-71
2021/05/16 08:30:58;;;;;;;22.35;9.57;;;;;;;;;;5059558;28;20553;-70
2021/05/16 08:33:24;;;;;;;20.27;8.40;;;;;;;;;;5064400;28;20358;-70
2021/05/16 08:35:49;;;;;;;19.58;8.45;;;;;;;;;;5063464;28;20904;-69
2021/05/16 08:38:14;;;;;;;18.05;8.10;;;;;;;;;;5069997;28;20717;-71
2021/05/16 08:40:39;;;;;;;21.13;7.05;;;;;;;;;;5064288;28;20188;-70
2021/05/16 08:43:04;;;;;;;23.75;8.52;;;;;;;;;;5063530;28;20215;-71
2021/05/16 08:45:30;;;;;;;19.38;6.55;;;;;;;;;;5056164;28;20185;-70
2021/05/16 08:47:56;;;;;;;13.88;6.15;;;;;;;;;;5061384;28;20173;-70
2021/05/16 08:50:22;;;;;;;15.40;6.35;;;;;;;;;;5064134;28;20184;-71
2021/05/16 08:52:47;;;;;;;11.73;5.20;;;;;;;;;;5063006;28;20216;-70
2021/05/16 08:55:13;;;;;;;14.03;6.20;;;;;;;;;;5061221;28;20183;-70
2021/05/16 08:57:39;;;;;;;17.20;5.85;;;;;;;;;;5069648;28;20490;-71
2021/05/16 09:00:06;;;;;;;16.33;5.20;;;;;;;;;;5056901;28;20191;-69
2021/05/16 09:02:32;;;;;;;15.77;5.45;;;;;;;;;;5064357;28;20633;-70
2021/05/16 09:04:57;;;;;;;15.02;6.40;;;;;;;;;;5072151;28;20255;-69
2021/05/16 09:07:29;;;;;;;14.55;5.15;;;;;;;;;;5063174;28;20169;-70
2021/05/16 09:09:54;;;;;;;10.63;5.50;;;;;;;;;;5067255;28;20673;-71
2021/05/16 09:12:20;;;;;;;18.52;6.40;;;;;;;;;;5065100;28;20201;-69
2021/05/16 09:14:52;;;;;;;20.20;7.47;;;;;;;;;;5070290;28;20184;-70
2021/05/16 09:17:25;;;;;;;17.20;6.28;;;;;;;;;;5065557;28;20690;-70
2021/05/16 09:19:52;;;;;;;14.73;5.75;;;;;;;;;;5070333;28;20205;-69
2021/05/16 09:22:35;;;;;;;13.38;5.65;;;;;;;;;;5063790;28;20289;-70
2021/05/16 09:25:09;;;;;;;17.48;5.50;;;;;;;;;;5069203;28;20248;-69
2021/05/16 09:27:35;;;;;;;13.82;5.85;;;;;;;;;;5060949;28;20192;-69
2021/05/16 09:30:01;;;;;;;18.77;5.80;;;;;;;;;;5062947;28;20173;-71
2021/05/16 09:32:27;;;;;;;16.42;5.20;;;;;;;;;;5073154;28;20189;-71
2021/05/16 09:34:52;;;;;;;13.57;4.80;;;;;;;;;;5066564;28;20255;-69
2021/05/16 09:37:17;;;;;;;13.13;5.18;;;;;;;;;;5065360;28;20296;-69
2021/05/16 09:39:44;;;;;;;13.25;5.10;;;;;;;;;;5070926;28;20236;-70
2021/05/16 09:42:13;;;;;;;16.60;5.00;;;;;;;;;;5069507;28;20777;-69
2021/05/16 09:44:46;;;;;;;16.23;5.45;;;;;;;;;;5067325;28;20642;-70
2021/05/16 09:47:18;;;;;;;21.00;6.30;;;;;;;;;;5069780;28;20639;-70
2021/05/16 09:49:48;;;;;;;13.27;5.68;;;;;;;;;;5065956;28;20253;-68
2021/05/16 09:52:17;;;;;;;14.25;5.45;;;;;;;;;;5066282;28;20198;-69
2021/05/16 09:54:55;;;;;;;11.30;4.93;;;;;;;;;;5068135;28;20170;-68
2021/05/16 09:57:20;;;;;;;14.27;5.78;;;;;;;;;;5065151;28;20226;-69
2021/05/16 09:59:46;;;;;;;12.25;5.70;;;;;;;;;;5069323;28;20169;-72
2021/05/16 10:02:12;;;;;;;15.52;5.35;;;;;;;;;;5070888;28;20196;-70
2021/05/16 10:04:37;;;;;;;17.70;5.43;;;;;;;;;;5069533;28;20187;-68
2021/05/16 10:07:02;;;;;;;17.48;5.47;;;;;;;;;;5065446;28;20262;-69
2021/05/16 10:09:27;;;;;;;15.57;5.97;;;;;;;;;;5067261;28;20165;-70
2021/05/16 10:11:52;;;;;;;18.33;6.35;;;;;;;;;;5071171;28;20208;-69
2021/05/16 10:14:21;;;;;;;18.70;6.88;;;;;;;;;;5057791;28;20189;-71
2021/05/16 10:16:47;;;;;;;16.67;5.65;;;;;;;;;;5062376;28;20242;-69
2021/05/16 10:19:15;;;;;;;16.52;4.97;;;;;;;;;;5060405;28;20185;-70
2021/05/16 10:21:41;;;;;;;15.52;5.72;;;;;;;;;;5064837;28;20193;-70
2021/05/16 10:24:15;;;;;;;13.32;5.05;;;;;;;;;;5063183;28;20636;-70
2021/05/16 10:26:41;;;;;;;9.93;4.28;;;;;;;;;;5061500;28;20203;-69
2021/05/16 10:29:08;;;;;;;10.93;5.07;;;;;;;;;;5060020;28;20197;-70
2021/05/16 10:31:43;;;;;;;10.35;5.15;;;;;;;;;;5070694;28;20716;-70
2021/05/16 10:34:23;;;;;;;15.13;4.82;;;;;;;;;;5068567;28;20275;-70
2021/05/16 10:36:49;;;;;;;15.48;5.05;;;;;;;;;;5063869;28;20250;-71
2021/05/16 10:39:34;;;;;;;10.80;3.53;;;;;;;;;;5063128;28;20695;-71
2021/05/16 10:42:12;;;;;;;14.40;4.82;;;;;;;;;;5065655;28;20240;-70
2021/05/16 10:44:40;;;;;;;10.40;3.75;;;;;;;;;;5064052;28;20550;-70
2021/05/16 10:47:06;;;;;;;9.55;3.40;;;;;;;;;;5069725;28;20173;-70
2021/05/16 10:49:33;;;;;;;7.13;2.67;;;;;;;;;;5068737;28;20311;-70
2021/05/16 10:52:18;;;;;;;13.75;3.90;;;;;;;;;;5060611;28;20217;-69
2021/05/16 10:54:47;;;;;;;9.15;4.13;;;;;;;;;;5063671;28;20235;-72
2021/05/16 10:57:13;;;;;;;13.18;4.53;;;;;;;;;;5066868;28;20213;-69
2021/05/16 10:59:39;;;;;;;10.60;3.95;;;;;;;;;;5051497;28;20682;-70
2021/05/16 11:02:04;;;;;;;11.00;3.60;;;;;;;;;;5065073;28;20196;-69
2021/05/16 11:04:50;;;;;;;9.37;3.17;;;;;;;;;;5064191;28;20177;-70
2021/05/16 11:07:34;;;;;;;11.35;3.58;;;;;;;;;;5067406;28;20432;-69
2021/05/16 11:10:23;;;;;;;12.85;3.75;;;;;;;;;;5055394;28;20173;-71
2021/05/16 11:12:48;;;;;;;10.55;3.15;;;;;;;;;;5065395;28;20208;-71
2021/05/16 11:15:23;;;;;;;15.30;3.90;;;;;;;;;;5059857;28;20189;-71
2021/05/16 11:17:50;;;;;;;10.82;3.88;;;;;;;;;;5061156;28;20453;-70
2021/05/16 11:20:17;;;;;;;10.43;3.78;;;;;;;;;;5070872;28;20561;-71
2021/05/16 11:22:42;;;;;;;9.63;3.70;;;;;;;;;;5056579;28;20294;-68
2021/05/16 11:25:08;;;;;;;7.90;3.22;;;;;;;;;;5063357;28;20781;-71
2021/05/16 11:27:33;;;;;;;9.10;3.65;;;;;;;;;;5057028;28;20173;-70
2021/05/16 11:30:04;;;;;;;10.70;3.58;;;;;;;;;;5060681;28;20174;-71
2021/05/16 11:32:31;;;;;;;12.60;4.07;;;;;;;;;;5064056;28;20228;-71
2021/05/16 11:35:11;;;;;;;11.65;2.97;;;;;;;;;;5063862;28;20184;-70
2021/05/16 11:37:38;;;;;;;7.00;2.50;;;;;;;;;;5059763;28;20199;-70
2021/05/16 11:40:15;;;;;;;5.68;1.83;;;;;;;;;;5056751;28;20526;-71
2021/05/16 11:42:40;;;;;;;4.10;1.30;;;;;;;;;;5063997;28;20280;-71
2021/05/16 11:45:07;;;;;;;4.70;1.38;;;;;;;;;;5063872;28;20273;-70
2021/05/16 11:47:35;;;;;;;5.60;1.60;;;;;;;;;;5058002;28;20169;-69
2021/05/16 11:50:00;;;;;;;8.30;2.10;;;;;;;;;;5061114;28;21532;-68
2021/05/16 11:52:26;;;;;;;3.33;1.43;;;;;;;;;;5062459;28;20289;-69
2021/05/16 11:54:51;;;;;;;4.18;1.30;;;;;;;;;;5063228;28;20430;-69
2021/05/16 11:57:17;;;;;;;3.67;1.23;;;;;;;;;;5063655;28;20219;-71
2021/05/16 11:59:42;;;;;;;5.72;1.70;;;;;;;;;;5060949;28;20211;-69
2021/05/16 12:02:08;;;;;;;4.38;1.58;;;;;;;;;;5060282;28;20610;-69
2021/05/16 12:04:37;;;;;;;2.40;1.15;;;;;;;;;;5057098;28;20226;-71
2021/05/16 12:07:02;;;;;;;2.85;1.20;;;;;;;;;;5062238;28;20181;-70
2021/05/16 12:09:27;;;;;;;5.95;2.00;;;;;;;;;;5065082;28;20176;-69
2021/05/16 12:11:53;;;;;;;6.90;2.00;;;;;;;;;;5058536;28;20488;-70
2021/05/16 12:14:20;;;;;;;5.82;1.88;;;;;;;;;;5075218;28;20414;-71
2021/05/16 12:17:05;;;;;;;6.68;2.53;;;;;;;;;;5061062;28;20177;-71
2021/05/16 12:19:40;;;;;;;6.53;1.90;;;;;;;;;;5054628;28;20169;-70
2021/05/16 12:22:05;;;;;;;5.43;1.50;;;;;;;;;;5056370;28;20196;-69
2021/05/16 12:24:34;;;;;;;6.65;2.22;;;;;;;;;;5061833;28;20264;-69
2021/05/16 12:27:00;;;;;;;3.53;1.33;;;;;;;;;;5053161;28;20753;-70
2021/05/16 12:29:26;;;;;;;4.68;1.45;;;;;;;;;;5066108;28;20177;-70
2021/05/16 12:31:51;;;;;;;7.32;2.05;;;;;;;;;;5057769;28;20281;-70
2021/05/16 12:34:21;;;;;;;7.80;2.30;;;;;;;;;;5062356;28;20323;-70
2021/05/16 12:36:48;;;;;;;5.65;1.50;;;;;;;;;;5066491;28;20212;-70
2021/05/16 12:39:13;;;;;;;3.78;1.10;;;;;;;;;;5063634;28;20199;-70
2021/05/16 12:41:39;;;;;;;4.22;1.23;;;;;;;;;;5059097;28;20197;-70
2021/05/16 12:44:12;;;;;;;4.35;1.60;;;;;;;;;;5061632;28;20310;-70
2021/05/16 12:46:48;;;;;;;2.92;1.23;;;;;;;;;;5058977;28;20181;-70
2021/05/16 12:49:16;;;;;;;1.83;0.95;;;;;;;;;;5061155;28;20258;-70
2021/05/16 12:51:41;;;;;;;3.00;0.88;;;;;;;;;;5059924;28;20192;-70
2021/05/16 12:54:17;;;;;;;1.88;0.93;;;;;;;;;;5062702;28;20200;-70
2021/05/16 12:56:45;;;;;;;1.92;0.95;;;;;;;;;;5061833;28;20183;-70
2021/05/16 12:59:14;;;;;;;1.00;0.50;;;;;;;;;;5060032;28;20188;-70
2021/05/16 13:01:40;;;;;;;1.13;0.63;;;;;;;;;;5060278;28;20575;-68
2021/05/16 13:04:11;;;;;;;2.63;0.90;;;;;;;;;;5058624;28;20212;-70
2021/05/16 13:06:36;;;;;;;4.80;1.33;;;;;;;;;;5065037;28;20630;-70
2021/05/16 13:09:02;;;;;;;3.70;1.65;;;;;;;;;;5061394;28;20260;-69
2021/05/16 13:11:43;;;;;;;4.13;1.08;;;;;;;;;;5066522;28;20204;-70
2021/05/16 13:14:08;;;;;;;1.33;0.82;;;;;;;;;;5058866;28;20193;-71
2021/05/16 13:16:37;;;;;;;1.05;0.63;;;;;;;;;;5061394;28;20174;-71
2021/05/16 13:19:02;;;;;;;1.70;0.93;;;;;;;;;;5060917;28;20192;-71
2021/05/16 13:21:28;;;;;;;2.20;1.00;;;;;;;;;;5060351;28;20173;-72
2021/05/16 13:23:57;;;;;;;1.80;0.82;;;;;;;;;;5050822;28;20698;-72
2021/05/16 13:26:38;;;;;;;1.60;0.90;;;;;;;;;;5061673;28;20207;-70
2021/05/16 13:29:03;;;;;;;1.80;1.02;;;;;;;;;;5051750;28;20205;-71
2021/05/16 13:31:28;;;;;;;0.85;0.40;;;;;;;;;;5066702;28;20202;-71
2021/05/16 13:33:54;;;;;;;1.95;0.85;;;;;;;;;;5068467;28;20234;-71
2021/05/16 13:36:19;;;;;;;2.05;0.93;;;;;;;;;;5063355;28;20181;-70
2021/05/16 13:38:45;;;;;;;0.98;0.60;;;;;;;;;;5066200;28;20252;-71
2021/05/16 13:41:13;;;;;;;2.88;0.63;;;;;;;;;;5062232;28;20220;-70
2021/05/16 13:43:38;;;;;;;1.35;0.68;;;;;;;;;;5062050;28;20203;-71
2021/05/16 13:46:04;;;;;;;3.13;1.10;;;;;;;;;;5062926;28;20183;-70
2021/05/16 13:48:29;;;;;;;1.10;0.57;;;;;;;;;;5068616;28;20251;-70
2021/05/16 13:50:54;;;;;;;1.55;0.60;;;;;;;;;;5065405;28;20257;-70
2021/05/16 13:53:19;;;;;;;1.53;1.03;;;;;;;;;;5066068;28;20670;-70
2021/05/16 13:55:45;;;;;;;1.83;0.77;;;;;;;;;;5064048;28;20450;-70
2021/05/16 13:58:10;;;;;;;2.78;1.45;;;;;;;;;;5063036;28;20217;-71
2021/05/16 14:00:35;;;;;;;2.47;1.02;;;;;;;;;;5065633;28;20216;-70
2021/05/16 14:03:00;;;;;;;3.58;1.05;;;;;;;;;;5057939;28;20202;-71
2021/05/16 14:05:26;;;;;;;2.28;0.95;;;;;;;;;;5060058;28;20661;-71
2021/05/16 14:07:51;;;;;;;2.15;1.10;;;;;;;;;;5060908;28;20189;-71
2021/05/16 14:10:16;;;;;;;2.53;0.98;;;;;;;;;;5059875;28;20600;-69
2021/05/16 14:12:42;;;;;;;2.77;0.80;;;;;;;;;;5064136;28;20208;-72
2021/05/16 14:15:07;;;;;;;2.45;1.20;;;;;;;;;;5060101;28;20432;-69
2021/05/16 14:17:32;;;;;;;2.55;1.67;;;;;;;;;;5060042;28;20257;-69
2021/05/16 14:19:57;;;;;;;1.52;0.90;;;;;;;;;;5062239;28;20204;-69
2021/05/16 14:22:23;;;;;;;1.30;0.87;;;;;;;;;;5058030;28;20202;-69